createdAt,value
2023-05-09T00:00:16.951Z,17.40
2023-05-09T00:01:49.128Z,17.02
2023-05-09T00:03:21.525Z,17.65
2023-05-09T00:04:53.640Z,18.48
2023-05-09T00:06:27.280Z,16.23
2023-05-09T00:07:59.532Z,18.73
2023-05-09T00:09:31.710Z,18.40
2023-05-09T00:11:04.098Z,16.92
2023-05-09T00:12:36.258Z,19.65
2023-05-09T00:14:08.806Z,16.40
2023-05-09T00:15:40.988Z,17.08
2023-05-09T00:17:16.056Z,18.67
2023-05-09T00:18:48.155Z,18.95
2023-05-09T00:20:20.606Z,15.93
2023-05-09T00:21:52.866Z,18.33
2023-05-09T00:23:25.028Z,17.98
2023-05-09T00:24:57.163Z,19.75
2023-05-09T00:26:35.864Z,19.83
2023-05-09T00:28:08.194Z,18.52
2023-05-09T00:29:40.274Z,18.98
2023-05-09T00:31:12.429Z,18.50
2023-05-09T00:32:44.682Z,17.67
2023-05-09T00:34:17.001Z,19.33
2023-05-09T00:35:49.133Z,17.92
2023-05-09T00:37:21.595Z,17.92
2023-05-09T00:38:53.839Z,19.03
2023-05-09T00:40:26.399Z,16.63
2023-05-09T00:41:58.631Z,16.95
2023-05-09T00:43:30.865Z,18.83
2023-05-09T00:45:03.472Z,16.58
2023-05-09T00:46:36.192Z,17.85
2023-05-09T00:48:11.333Z,15.13
2023-05-09T00:49:43.637Z,15.10
2023-05-09T00:51:16.198Z,15.32
2023-05-09T00:52:48.333Z,14.98
2023-05-09T00:54:20.728Z,14.13
2023-05-09T00:57:38.034Z,13.85
2023-05-09T00:59:10.529Z,13.82
2023-05-09T01:00:43.466Z,12.33
2023-05-09T01:02:19.843Z,13.00
2023-05-09T01:03:52.285Z,12.48
2023-05-09T01:05:29.281Z,13.00
2023-05-09T01:07:23.560Z,11.85
2023-05-09T01:09:07.891Z,12.75
2023-05-09T01:10:46.601Z,11.57
2023-05-09T01:12:30.804Z,13.63
2023-05-09T01:14:31.306Z,11.52
2023-05-09T01:16:35.684Z,13.63
2023-05-09T01:18:46.678Z,15.02
2023-05-09T01:20:47.359Z,11.80
2023-05-09T01:22:21.347Z,12.60
2023-05-09T01:24:21.186Z,12.80
2023-05-09T01:26:06.842Z,13.23
2023-05-09T01:28:19.728Z,12.65
2023-05-09T01:29:59.291Z,13.00
2023-05-09T01:31:32.973Z,13.57
2023-05-09T01:33:07.524Z,14.18
2023-05-09T01:34:41.048Z,12.52
2023-05-09T01:36:16.815Z,9.82
2023-05-09T01:37:50.090Z,10.32
2023-05-09T01:39:23.118Z,11.80
2023-05-09T01:40:55.740Z,14.35
2023-05-09T01:42:31.107Z,10.98
2023-05-09T01:44:05.944Z,10.88
2023-05-09T01:45:41.213Z,12.70
2023-05-09T01:47:13.634Z,11.45
2023-05-09T01:48:46.229Z,9.68
2023-05-09T01:50:19.626Z,11.97
2023-05-09T01:53:24.884Z,10.60
2023-05-09T01:54:57.182Z,10.60
2023-05-09T01:56:29.715Z,9.43
2023-05-09T01:58:02.063Z,10.27
2023-05-09T01:59:35.191Z,11.07
2023-05-09T02:02:39.813Z,11.55
2023-05-09T02:04:12.131Z,9.63
2023-05-09T02:05:44.993Z,10.38
2023-05-09T02:07:17.268Z,8.77
2023-05-09T02:08:49.808Z,6.90
2023-05-09T02:10:23.047Z,6.47
2023-05-09T02:11:55.305Z,6.53
2023-05-09T02:13:27.607Z,4.90
2023-05-09T02:15:00.147Z,4.90
2023-05-09T02:16:33.088Z,5.30
2023-05-09T02:18:05.344Z,5.13
2023-05-09T02:19:37.564Z,5.93
2023-05-09T02:21:09.871Z,5.50
2023-05-09T02:22:43.138Z,3.95
2023-05-09T02:24:15.538Z,6.15
2023-05-09T02:25:47.665Z,2.78
2023-05-09T02:27:20.285Z,4.50
2023-05-09T02:28:52.706Z,7.00
2023-05-09T02:30:25.690Z,4.20
2023-05-09T02:31:58.612Z,3.17
2023-05-09T02:33:31.323Z,5.03
2023-05-09T02:35:04.458Z,4.10
2023-05-09T02:36:36.707Z,3.33
2023-05-09T02:38:09.099Z,2.67
2023-05-09T02:39:41.388Z,3.63
2023-05-09T02:41:16.886Z,5.35
2023-05-09T02:42:49.153Z,5.18
2023-05-09T02:44:21.462Z,4.10
2023-05-09T02:45:53.628Z,4.22
2023-05-09T02:47:26.199Z,4.00
2023-05-09T02:48:58.387Z,3.85
2023-05-09T02:50:30.635Z,3.55
2023-05-09T02:52:02.735Z,4.75
2023-05-09T02:53:34.862Z,3.40
2023-05-09T02:55:07.894Z,2.75
2023-05-09T02:56:40.091Z,3.47
2023-05-09T02:58:14.746Z,4.13
2023-05-09T03:01:19.042Z,4.28
2023-05-09T03:02:51.317Z,5.07
2023-05-09T03:04:23.514Z,3.10
2023-05-09T03:05:55.792Z,6.57
2023-05-09T03:07:27.904Z,5.15
2023-05-09T03:09:00.024Z,4.65
2023-05-09T03:10:32.201Z,6.03
2023-05-09T03:12:04.687Z,5.18
2023-05-09T03:13:36.794Z,4.60
2023-05-09T03:15:09.358Z,3.80
2023-05-09T03:16:41.517Z,5.95
2023-05-09T03:18:13.709Z,4.82
2023-05-09T03:19:45.873Z,5.30
2023-05-09T03:21:18.252Z,5.28
2023-05-09T03:22:50.393Z,7.78
2023-05-09T03:24:27.049Z,5.45
2023-05-09T03:25:59.150Z,6.00
2023-05-09T03:27:31.292Z,6.45
2023-05-09T03:29:04.381Z,5.32
2023-05-09T03:30:37.116Z,4.82
2023-05-09T03:32:09.288Z,5.28
2023-05-09T03:33:41.505Z,6.18
2023-05-09T03:35:13.831Z,6.75
2023-05-09T03:36:46.236Z,5.50
2023-05-09T03:38:18.353Z,4.88
2023-05-09T03:39:50.590Z,6.00
2023-05-09T03:41:22.830Z,6.07
2023-05-09T03:42:54.886Z,7.75
2023-05-09T03:44:27.197Z,5.15
2023-05-09T03:45:59.444Z,5.75
2023-05-09T03:47:33.780Z,5.20
2023-05-09T03:49:05.887Z,5.00
2023-05-09T03:50:38.299Z,6.13
2023-05-09T03:52:10.838Z,5.72
2023-05-09T03:53:46.444Z,5.95
2023-05-09T03:55:19.015Z,5.35
2023-05-09T03:56:51.182Z,11.45
2023-05-09T03:58:23.259Z,7.03
2023-05-09T03:59:55.427Z,5.95
2023-05-09T04:01:30.565Z,4.85
2023-05-09T04:03:02.905Z,5.97
2023-05-09T04:04:35.120Z,6.30
2023-05-09T04:06:07.455Z,5.82
2023-05-09T04:07:39.570Z,6.32
2023-05-09T04:09:11.696Z,5.90
2023-05-09T04:10:43.869Z,5.05
2023-05-09T04:12:16.135Z,6.60
2023-05-09T04:13:48.313Z,5.53
2023-05-09T04:15:20.449Z,6.20
2023-05-09T04:16:54.738Z,5.80
2023-05-09T04:18:26.891Z,5.90
2023-05-09T04:19:58.998Z,5.32
2023-05-09T04:21:32.366Z,5.65
2023-05-09T04:23:04.558Z,7.43
2023-05-09T04:24:36.726Z,6.72
2023-05-09T04:26:10.181Z,5.90
2023-05-09T04:29:14.968Z,7.32
2023-05-09T04:30:47.118Z,4.30
2023-05-09T04:32:23.763Z,4.53
2023-05-09T04:33:56.042Z,5.45
2023-05-09T04:35:28.494Z,4.00
2023-05-09T04:37:03.040Z,4.00
2023-05-09T04:38:35.945Z,3.65
2023-05-09T04:40:09.604Z,6.40
2023-05-09T04:41:44.147Z,3.72
2023-05-09T04:43:16.249Z,3.17
2023-05-09T04:44:49.848Z,4.38
2023-05-09T04:46:24.257Z,4.97
2023-05-09T04:47:57.730Z,3.42
2023-05-09T04:49:29.911Z,5.72
2023-05-09T04:51:02.682Z,5.45
2023-05-09T04:52:34.840Z,4.68
2023-05-09T04:54:07.240Z,4.63
2023-05-09T04:55:39.392Z,5.07
2023-05-09T04:57:17.772Z,4.68
2023-05-09T04:58:50.355Z,6.38
2023-05-09T05:00:22.501Z,4.80
2023-05-09T05:01:54.963Z,4.97
2023-05-09T05:03:27.317Z,5.47
2023-05-09T05:05:10.887Z,6.13
2023-05-09T05:06:44.004Z,5.15
2023-05-09T05:08:16.276Z,5.85
2023-05-09T05:09:48.489Z,3.28
2023-05-09T05:11:20.952Z,4.15
2023-05-09T05:12:53.119Z,4.00
2023-05-09T05:14:25.229Z,3.88
2023-05-09T05:15:58.852Z,2.90
2023-05-09T05:17:31.130Z,2.20
2023-05-09T05:19:03.495Z,3.17
2023-05-09T05:20:35.701Z,4.63
2023-05-09T05:22:07.769Z,5.35
2023-05-09T05:23:39.963Z,5.65
2023-05-09T05:25:12.713Z,5.50
2023-05-09T05:26:45.116Z,5.93
2023-05-09T05:28:17.381Z,6.75
2023-05-09T05:29:49.502Z,5.78
2023-05-09T05:31:25.083Z,5.30
2023-05-09T05:32:57.256Z,7.75
2023-05-09T05:34:29.404Z,6.47
2023-05-09T05:36:01.580Z,4.80
2023-05-09T05:37:33.759Z,4.32
2023-05-09T05:39:06.105Z,5.75
2023-05-09T05:40:38.226Z,4.97
2023-05-09T05:42:10.499Z,4.55
2023-05-09T05:43:42.590Z,5.05
2023-05-09T05:45:15.089Z,4.50
2023-05-09T05:46:47.468Z,4.95
2023-05-09T05:48:19.605Z,3.17
2023-05-09T05:49:51.763Z,4.93
2023-05-09T05:51:23.877Z,2.13
2023-05-09T05:52:55.992Z,2.72
2023-05-09T05:54:28.130Z,3.10
2023-05-09T05:56:00.335Z,3.15
2023-05-09T05:57:33.610Z,3.10
2023-05-09T05:59:05.717Z,2.55
2023-05-09T06:00:38.066Z,2.53
2023-05-09T06:02:10.204Z,3.22
2023-05-09T06:03:42.399Z,2.83
2023-05-09T06:05:14.819Z,2.90
2023-05-09T06:06:47.305Z,3.40
2023-05-09T06:08:19.459Z,3.72
2023-05-09T06:09:51.701Z,4.55
2023-05-09T06:11:23.989Z,4.65
2023-05-09T06:12:56.180Z,3.78
2023-05-09T06:14:28.337Z,3.72
2023-05-09T06:16:15.056Z,4.40
2023-05-09T06:17:47.699Z,5.45
2023-05-09T06:19:19.863Z,5.65
2023-05-09T06:20:52.077Z,4.95
2023-05-09T06:22:24.249Z,4.55
2023-05-09T06:25:31.380Z,4.70
2023-05-09T06:27:04.250Z,5.10
2023-05-09T06:28:36.450Z,4.95
2023-05-09T06:30:23.966Z,5.70
2023-05-09T06:31:57.343Z,5.72
2023-05-09T06:33:29.541Z,6.78
2023-05-09T06:35:01.744Z,7.90
2023-05-09T06:36:34.481Z,6.50
2023-05-09T06:38:07.412Z,6.60
2023-05-09T06:39:39.596Z,6.10
2023-05-09T06:41:11.908Z,7.30
2023-05-09T06:42:43.970Z,6.50
2023-05-09T06:44:16.060Z,8.77
2023-05-09T06:45:48.210Z,7.10
2023-05-09T06:47:20.391Z,8.30
2023-05-09T06:48:52.459Z,6.90
2023-05-09T06:50:24.560Z,7.30
2023-05-09T06:51:56.637Z,7.35
2023-05-09T06:53:28.841Z,6.95
2023-05-09T06:55:01.034Z,7.68
2023-05-09T06:56:33.233Z,7.43
2023-05-09T06:58:05.317Z,10.23
2023-05-09T06:59:37.453Z,9.20
2023-05-09T07:01:09.693Z,8.20
2023-05-09T07:02:42.555Z,7.75
2023-05-09T07:04:14.800Z,8.13
2023-05-09T07:05:47.075Z,7.28
2023-05-09T07:07:19.248Z,8.80
2023-05-09T07:08:51.495Z,7.68
2023-05-09T07:10:23.768Z,7.63
2023-05-09T07:13:30.869Z,8.50
2023-05-09T07:15:03.095Z,8.45
2023-05-09T07:16:37.450Z,7.63
2023-05-09T07:18:10.179Z,7.35
2023-05-09T07:19:42.364Z,7.40
2023-05-09T07:21:14.555Z,8.85
2023-05-09T07:22:46.702Z,9.55
2023-05-09T07:24:18.850Z,10.63
2023-05-09T07:25:56.952Z,8.05
2023-05-09T07:27:29.188Z,7.63
2023-05-09T07:29:01.252Z,6.60
2023-05-09T07:30:33.424Z,7.13
2023-05-09T07:32:05.746Z,7.93
2023-05-09T08:42:05.748Z,8.35
2023-05-09T08:43:39.056Z,7.95
2023-05-09T08:45:12.201Z,7.18
2023-05-09T08:46:45.078Z,7.82
2023-05-09T08:48:17.841Z,9.52
2023-05-09T08:49:50.794Z,8.88
2023-05-09T08:51:23.077Z,7.70
2023-05-09T08:52:55.301Z,6.88
2023-05-09T08:54:27.762Z,8.43
2023-05-09T08:56:01.827Z,9.75
2023-05-09T08:57:37.587Z,8.05
2023-05-09T08:59:10.546Z,9.40
2023-05-09T09:00:42.832Z,8.10
2023-05-09T09:02:15.125Z,7.00
2023-05-09T09:03:47.990Z,8.30
2023-05-09T09:05:40.073Z,7.80
2023-05-09T09:07:12.903Z,8.07
2023-05-09T09:08:45.208Z,7.88
2023-05-09T09:10:17.601Z,7.20
2023-05-09T09:11:49.927Z,8.20
2023-05-09T09:13:22.533Z,8.88
2023-05-09T09:14:56.430Z,8.63
2023-05-09T09:16:30.110Z,6.97
2023-05-09T09:18:27.690Z,7.60
2023-05-09T09:20:02.378Z,6.93
2023-05-09T09:21:34.673Z,6.25
2023-05-09T09:23:10.904Z,7.97
2023-05-09T09:24:43.113Z,8.25
2023-05-09T09:26:15.468Z,8.35
2023-05-09T09:27:47.560Z,9.43
2023-05-09T09:29:21.187Z,7.18
2023-05-09T09:30:53.440Z,8.07
2023-05-09T09:32:34.508Z,9.70
2023-05-09T09:34:06.672Z,9.05
2023-05-09T09:35:43.878Z,8.50
2023-05-09T09:37:24.277Z,7.78
2023-05-09T09:39:01.066Z,8.73
2023-05-09T09:40:33.353Z,7.90
2023-05-09T09:42:13.860Z,7.88
2023-05-09T09:43:46.737Z,8.43
2023-05-09T09:45:20.432Z,7.38
2023-05-09T09:46:54.999Z,7.60
2023-05-09T09:48:27.943Z,7.00
2023-05-09T09:50:16.116Z,8.98
2023-05-09T09:51:56.625Z,8.00
2023-05-09T09:53:31.534Z,7.65
2023-05-09T09:55:04.083Z,8.55
2023-05-09T09:56:44.365Z,8.27
2023-05-09T09:58:22.536Z,8.02
2023-05-09T10:00:04.453Z,8.68
2023-05-09T10:01:36.658Z,7.80
2023-05-09T10:03:16.492Z,8.60
2023-05-09T10:04:48.790Z,8.48
2023-05-09T10:06:21.062Z,8.10
2023-05-09T10:08:00.725Z,9.70
2023-05-09T10:09:34.098Z,8.10
2023-05-09T10:12:38.392Z,7.82
2023-05-09T10:14:11.055Z,8.18
2023-05-09T10:15:53.090Z,8.75
2023-05-09T10:17:27.845Z,8.40
2023-05-09T10:19:00.257Z,7.20
2023-05-09T10:20:32.685Z,7.72
2023-05-09T10:22:10.559Z,7.65
2023-05-09T10:23:47.506Z,8.65
2023-05-09T10:25:26.502Z,9.30
2023-05-09T10:27:07.158Z,7.90
2023-05-09T10:28:41.117Z,7.38
2023-05-09T10:30:20.474Z,8.10
2023-05-09T10:31:56.003Z,8.07
2023-05-09T10:33:35.289Z,9.30
2023-05-09T10:35:09.266Z,7.55
2023-05-09T10:36:41.540Z,7.85
2023-05-09T10:38:14.350Z,8.45
2023-05-09T10:39:47.271Z,7.82
2023-05-09T10:41:22.352Z,9.90
2023-05-09T10:42:54.604Z,7.18
2023-05-09T10:44:27.523Z,8.75
2023-05-09T10:45:59.873Z,7.78
2023-05-09T10:47:33.698Z,7.80
2023-05-09T10:50:40.757Z,7.63
2023-05-09T10:52:12.970Z,8.50
2023-05-09T10:53:50.225Z,7.72
2023-05-09T10:55:22.908Z,7.13
2023-05-09T10:56:55.776Z,8.82
2023-05-09T10:58:33.934Z,7.28
2023-05-09T11:00:06.893Z,7.50
2023-05-09T11:01:39.952Z,7.47
2023-05-09T11:03:12.141Z,11.43
2023-05-09T11:04:44.738Z,7.70
2023-05-09T11:06:42.240Z,7.47
2023-05-09T11:08:28.324Z,7.93
2023-05-09T11:10:10.315Z,9.32
2023-05-09T11:11:52.220Z,8.27
2023-05-09T11:13:25.700Z,8.70
2023-05-09T11:15:05.662Z,7.22
2023-05-09T11:16:58.155Z,8.68
2023-05-09T11:18:33.580Z,6.70
2023-05-09T11:20:06.972Z,7.05
2023-05-09T11:23:12.300Z,7.38
2023-05-09T11:24:48.733Z,7.57
2023-05-09T11:26:22.874Z,7.25
2023-05-09T11:27:59.567Z,7.68
2023-05-09T11:29:44.627Z,7.93
2023-05-09T11:31:18.122Z,7.95
2023-05-09T11:32:59.320Z,8.30
2023-05-09T11:34:31.510Z,7.40
2023-05-09T11:36:32.370Z,8.07
2023-05-09T11:38:06.315Z,10.68
2023-05-09T11:40:01.208Z,7.50
2023-05-09T11:41:53.553Z,6.88
2023-05-09T11:43:25.841Z,8.10
2023-05-09T11:44:59.168Z,7.00
2023-05-09T11:46:31.728Z,8.30
2023-05-09T11:48:09.669Z,7.17
2023-05-09T11:49:45.078Z,6.82
2023-05-09T11:51:20.634Z,7.18
2023-05-09T11:52:54.003Z,6.55
2023-05-09T11:55:58.155Z,6.13
2023-05-09T11:57:30.615Z,8.38
2023-05-09T11:59:03.436Z,8.13
2023-05-09T12:00:37.659Z,9.65
2023-05-09T12:02:09.945Z,7.30
2023-05-09T12:03:45.417Z,8.48
2023-05-09T12:05:19.339Z,6.90
2023-05-09T12:06:51.573Z,6.88
2023-05-09T12:08:25.298Z,7.05
2023-05-09T12:09:58.151Z,7.25
2023-05-09T12:11:32.890Z,7.90
2023-05-09T12:13:05.114Z,7.45
2023-05-09T12:14:37.377Z,7.00
2023-05-09T12:16:09.664Z,6.30
2023-05-09T12:17:42.927Z,6.88
2023-05-09T12:19:15.571Z,7.28
2023-05-09T12:20:51.538Z,8.20
2023-05-09T12:22:23.785Z,7.93
2023-05-09T12:23:57.736Z,8.15
2023-05-09T12:25:29.891Z,7.15
2023-05-09T12:27:02.532Z,7.35
2023-05-09T12:28:35.032Z,7.13
2023-05-09T12:30:12.494Z,8.10
2023-05-09T12:31:45.052Z,6.80
2023-05-09T12:33:17.691Z,6.78
2023-05-09T12:34:50.318Z,7.37
2023-05-09T12:36:22.495Z,8.15
2023-05-09T12:37:59.161Z,8.45
2023-05-09T12:39:31.306Z,7.65
2023-05-09T12:41:18.909Z,10.45
2023-05-09T12:43:03.594Z,7.47
2023-05-09T12:44:35.801Z,8.02
2023-05-09T12:46:09.024Z,7.20
2023-05-09T12:47:42.308Z,8.25
2023-05-09T12:49:22.522Z,11.77
2023-05-09T12:50:54.696Z,7.75
2023-05-09T12:52:33.473Z,7.50
2023-05-09T12:54:06.402Z,8.40
2023-05-09T12:55:42.115Z,7.10
2023-05-09T12:57:25.275Z,7.50
2023-05-09T12:58:57.316Z,7.22
2023-05-09T13:00:30.135Z,7.10
2023-05-09T13:02:02.477Z,8.15
2023-05-09T13:03:40.484Z,8.38
2023-05-09T13:05:16.540Z,7.32
2023-05-09T13:06:50.668Z,8.63
2023-05-09T13:08:23.573Z,7.25
2023-05-09T13:09:57.326Z,7.50
2023-05-09T13:11:30.058Z,10.85
2023-05-09T13:13:04.789Z,7.50
2023-05-09T13:14:37.085Z,8.18
2023-05-09T13:16:10.962Z,7.80
2023-05-09T13:17:44.449Z,7.22
2023-05-09T13:19:16.769Z,8.98
2023-05-09T13:20:48.862Z,7.65
2023-05-09T13:22:21.521Z,8.30
2023-05-09T13:23:53.724Z,8.30
2023-05-09T13:25:26.013Z,8.60
2023-05-09T13:26:58.111Z,9.20
2023-05-09T13:30:03.183Z,9.35
2023-05-09T13:31:35.391Z,8.40
2023-05-09T13:33:24.044Z,8.70
2023-05-09T13:34:57.671Z,9.70
2023-05-09T13:36:29.906Z,9.13
2023-05-09T13:38:02.144Z,8.85
2023-05-09T13:39:34.255Z,9.18
2023-05-09T13:41:07.486Z,8.55
2023-05-09T13:42:40.070Z,7.85
2023-05-09T13:44:12.251Z,8.23
2023-05-09T13:45:44.357Z,7.50
2023-05-09T13:47:16.407Z,8.73
2023-05-09T13:48:48.853Z,8.50
2023-05-09T13:50:21.029Z,6.40
2023-05-09T13:51:53.091Z,8.18
2023-05-09T13:53:25.527Z,8.02
2023-05-09T13:54:57.670Z,7.18
2023-05-09T13:56:29.796Z,9.00
2023-05-09T13:58:02.135Z,6.72
2023-05-09T13:59:34.736Z,7.00
2023-05-09T14:01:07.962Z,7.30
2023-05-09T14:02:40.532Z,7.15
2023-05-09T14:04:13.172Z,7.60
2023-05-09T14:05:45.359Z,6.67
2023-05-09T14:07:18.255Z,6.95
2023-05-09T14:08:50.400Z,7.00
2023-05-09T14:10:22.600Z,6.68
2023-05-09T14:11:55.410Z,7.20
2023-05-09T14:13:27.808Z,7.78
2023-05-09T14:15:00.113Z,6.82
2023-05-09T14:16:32.267Z,7.53
2023-05-09T14:18:04.646Z,7.20
2023-05-09T14:19:37.006Z,8.85
2023-05-09T14:21:09.291Z,6.80
2023-05-09T14:22:41.584Z,7.35
2023-05-09T14:24:16.048Z,7.15
2023-05-09T14:25:48.585Z,8.45
2023-05-09T14:27:20.752Z,7.75
2023-05-09T14:28:53.770Z,7.75
2023-05-09T14:30:26.939Z,7.82
2023-05-09T14:31:59.091Z,6.60
2023-05-09T14:33:31.398Z,6.85
2023-05-09T14:35:03.623Z,11.52
2023-05-09T14:36:35.767Z,8.30
2023-05-09T14:38:07.927Z,7.18
2023-05-09T14:39:42.593Z,7.88
2023-05-09T14:41:15.561Z,7.25
2023-05-09T14:42:48.869Z,8.38
2023-05-09T14:44:20.981Z,7.55
2023-05-09T14:45:53.259Z,7.78
2023-05-09T14:47:25.556Z,9.77
2023-05-09T14:49:04.361Z,8.20
2023-05-09T14:50:36.553Z,7.28
2023-05-09T14:52:08.726Z,8.32
2023-05-09T14:53:42.236Z,7.40
2023-05-09T14:55:14.391Z,7.15
2023-05-09T14:56:46.483Z,8.43
2023-05-09T14:58:19.021Z,10.00
2023-05-09T14:59:51.198Z,6.78
2023-05-09T15:01:23.928Z,8.20
2023-05-09T15:02:56.451Z,7.32
2023-05-09T15:04:31.246Z,7.60
2023-05-09T15:06:03.808Z,7.22
2023-05-09T15:07:36.302Z,10.07
2023-05-09T15:09:08.862Z,7.87
2023-05-09T15:10:41.591Z,7.30
2023-05-09T15:12:13.757Z,8.20
2023-05-09T15:13:48.960Z,10.18
2023-05-09T15:15:23.870Z,7.90
2023-05-09T15:16:59.443Z,8.48
2023-05-09T15:18:32.007Z,9.20
2023-05-09T15:20:04.928Z,7.93
2023-05-09T15:21:37.171Z,8.20
2023-05-09T15:23:09.647Z,9.52
2023-05-09T15:24:43.212Z,8.73
2023-05-09T15:27:52.492Z,8.32
2023-05-09T15:29:24.800Z,9.13
2023-05-09T15:30:58.402Z,9.30
2023-05-09T15:32:30.542Z,8.38
2023-05-09T15:34:02.681Z,8.70
2023-05-09T15:35:35.210Z,9.07
2023-05-09T15:37:07.417Z,8.88
2023-05-09T15:38:39.501Z,8.38
2023-05-09T15:40:14.852Z,10.30
2023-05-09T15:41:47.577Z,10.10
2023-05-09T15:43:19.781Z,10.47
2023-05-09T15:44:52.202Z,8.77
2023-05-09T15:46:24.570Z,9.10
2023-05-09T15:47:56.834Z,8.55
2023-05-09T15:49:29.095Z,11.13
2023-05-09T15:51:02.903Z,8.90
2023-05-09T15:52:35.043Z,9.20
2023-05-09T15:54:07.245Z,9.30
2023-05-09T15:55:39.604Z,9.80
2023-05-09T15:57:14.871Z,9.52
2023-05-09T15:58:47.153Z,9.27
2023-05-09T16:00:19.933Z,9.63
2023-05-09T16:01:52.481Z,9.30
2023-05-09T16:03:25.335Z,9.75
2023-05-09T16:04:57.611Z,8.88
2023-05-09T16:06:29.806Z,11.70
2023-05-09T16:08:01.976Z,10.13
2023-05-09T16:09:34.047Z,10.15
2023-05-09T16:11:08.396Z,10.20
2023-05-09T16:12:41.628Z,8.80
2023-05-09T16:14:14.213Z,9.25
2023-05-09T16:15:48.306Z,8.77
2023-05-09T16:17:20.536Z,9.18
2023-05-09T16:18:53.005Z,9.27
2023-05-09T16:20:25.127Z,9.63
2023-05-09T16:21:57.378Z,10.38
2023-05-09T16:23:29.516Z,9.00
2023-05-09T16:25:01.664Z,11.45
2023-05-09T16:26:33.820Z,12.43
2023-05-09T16:28:07.492Z,10.00
2023-05-09T16:29:39.744Z,9.48
2023-05-09T16:31:11.907Z,8.82
2023-05-09T16:32:44.156Z,9.70
2023-05-09T16:34:16.301Z,9.45
2023-05-09T16:35:48.483Z,8.52
2023-05-09T16:37:20.815Z,12.75
2023-05-09T16:38:53.042Z,10.10
2023-05-09T16:40:25.328Z,9.60
2023-05-09T16:41:58.516Z,10.23
2023-05-09T16:43:31.280Z,9.57
2023-05-09T16:45:03.565Z,11.52
2023-05-09T16:46:35.673Z,11.60
2023-05-09T16:48:07.971Z,10.20
2023-05-09T16:49:40.230Z,11.57
2023-05-09T16:51:12.501Z,9.50
2023-05-09T16:52:44.693Z,10.00
2023-05-09T16:54:16.879Z,11.27
2023-05-09T16:55:49.864Z,9.50
2023-05-09T16:57:22.150Z,10.45
2023-05-09T16:58:54.299Z,10.88
2023-05-09T17:00:26.582Z,11.30
2023-05-09T17:01:59.115Z,11.50
2023-05-09T17:03:31.230Z,10.00
2023-05-09T17:05:04.729Z,10.63
2023-05-09T17:06:36.918Z,12.45
2023-05-09T17:08:09.291Z,9.15
2023-05-09T17:09:41.571Z,10.57
2023-05-09T17:11:13.832Z,10.07
2023-05-09T17:12:46.033Z,15.73
2023-05-09T17:14:18.304Z,11.27
2023-05-09T17:15:53.112Z,10.70
2023-05-09T17:17:25.274Z,12.73
2023-05-09T17:18:57.370Z,9.93
2023-05-09T17:20:32.300Z,10.40
2023-05-09T17:22:06.148Z,11.35
2023-05-09T17:23:38.339Z,11.43
2023-05-09T17:25:10.670Z,11.10
2023-05-09T17:26:43.308Z,12.90
2023-05-09T17:28:15.441Z,11.00
2023-05-09T17:29:47.856Z,12.93
2023-05-09T17:31:20.373Z,13.13
2023-05-09T17:32:52.601Z,12.77
2023-05-09T17:34:24.998Z,11.43
2023-05-09T17:35:57.759Z,11.23
2023-05-09T17:37:29.943Z,10.80
2023-05-09T17:39:02.050Z,12.65
2023-05-09T17:40:37.307Z,12.07
2023-05-09T17:42:09.612Z,15.65
2023-05-09T17:43:41.773Z,15.05
2023-05-09T17:45:13.954Z,11.68
2023-05-09T17:46:46.086Z,14.15
2023-05-09T17:48:18.647Z,12.73
2023-05-09T17:49:50.842Z,14.50
2023-05-09T17:51:23.031Z,12.77
2023-05-09T17:52:56.959Z,16.17
2023-05-09T17:54:29.339Z,12.50
2023-05-09T17:56:01.552Z,15.27
2023-05-09T17:57:33.708Z,13.55
2023-05-09T17:59:05.910Z,16.17
2023-05-09T18:00:38.103Z,13.15
2023-05-09T18:02:10.720Z,13.43
2023-05-09T18:03:43.081Z,13.45
2023-05-09T18:05:15.368Z,13.38
2023-05-09T18:06:49.543Z,15.00
2023-05-09T18:08:21.740Z,14.23
2023-05-09T18:09:53.833Z,15.73
2023-05-09T18:11:26.692Z,13.90
2023-05-09T18:12:58.903Z,12.43
2023-05-09T18:14:31.019Z,11.07
2023-05-09T18:16:03.255Z,12.95
2023-05-09T18:17:35.370Z,14.00
2023-05-09T18:19:07.674Z,13.07
2023-05-09T18:20:39.925Z,11.77
2023-05-09T18:22:12.300Z,14.05
2023-05-09T18:23:44.415Z,11.98
2023-05-09T18:25:17.531Z,11.50
2023-05-09T18:26:49.771Z,12.48
2023-05-09T18:28:25.662Z,18.92
2023-05-09T18:29:57.977Z,11.95
2023-05-09T18:31:31.727Z,11.90
2023-05-09T18:33:04.175Z,11.77
2023-05-09T18:34:36.502Z,14.50
2023-05-09T18:36:10.700Z,11.73
2023-05-09T18:37:43.388Z,12.30
2023-05-09T18:39:15.634Z,12.75
2023-05-09T18:40:48.742Z,12.55
2023-05-09T18:42:21.001Z,13.30
2023-05-09T18:43:53.676Z,13.30
2023-05-09T18:45:25.928Z,11.93
2023-05-09T18:46:58.416Z,12.38
2023-05-09T18:48:30.835Z,14.05
2023-05-09T18:50:04.659Z,15.50
2023-05-09T18:51:37.006Z,13.07
2023-05-09T18:53:09.513Z,14.13
2023-05-09T18:54:42.568Z,11.73
2023-05-09T18:56:14.904Z,13.45
2023-05-09T18:57:47.242Z,11.98
2023-05-09T18:59:19.302Z,13.07
2023-05-09T19:00:53.263Z,12.45
2023-05-09T19:02:25.883Z,12.57
2023-05-09T19:03:58.174Z,12.00
2023-05-09T19:05:30.709Z,11.95
2023-05-09T19:07:02.838Z,11.43
2023-05-09T19:08:34.976Z,12.07
2023-05-09T19:10:10.296Z,12.63
2023-05-09T19:11:42.542Z,13.35
2023-05-09T19:13:16.545Z,16.17
2023-05-09T19:14:49.452Z,12.30
2023-05-09T19:16:22.873Z,12.55
2023-05-09T19:19:27.731Z,12.68
2023-05-09T19:21:00.149Z,13.30
2023-05-09T19:22:32.610Z,14.27
2023-05-09T19:24:06.652Z,11.53
2023-05-09T19:25:38.802Z,13.05
2023-05-09T19:28:43.947Z,11.45
2023-05-09T19:30:16.778Z,13.05
2023-05-09T19:31:49.288Z,16.55
2023-05-09T19:33:21.417Z,12.68
2023-05-09T19:34:53.755Z,12.80
2023-05-09T19:36:26.043Z,14.02
2023-05-09T19:37:58.978Z,13.98
2023-05-09T19:39:31.410Z,16.38
2023-05-09T19:41:03.672Z,11.63
2023-05-09T19:42:38.215Z,13.90
2023-05-09T19:44:10.525Z,13.15
2023-05-09T19:45:42.818Z,12.18
2023-05-09T19:47:14.929Z,12.75
2023-05-09T19:48:47.084Z,13.02
2023-05-09T19:50:20.194Z,12.77
2023-05-09T19:51:52.377Z,12.25
2023-05-09T19:53:24.820Z,12.32
2023-05-09T19:54:57.003Z,14.52
2023-05-09T19:56:29.221Z,24.55
2023-05-09T19:58:01.348Z,19.90
2023-05-09T19:59:33.524Z,16.55
2023-05-09T20:02:54.766Z,21.45
2023-05-09T20:04:27.027Z,20.20
2023-05-09T20:05:59.281Z,19.83
2023-05-09T20:07:31.557Z,18.77
2023-05-09T20:09:03.690Z,17.25
2023-05-09T20:10:35.872Z,17.10
2023-05-09T20:12:08.660Z,18.05
2023-05-09T20:13:40.918Z,18.35
2023-05-09T20:15:14.045Z,16.60
2023-05-09T20:16:46.281Z,14.60
2023-05-09T20:18:19.089Z,16.67
2023-05-09T20:19:51.743Z,13.98
2023-05-09T20:21:24.067Z,17.80
2023-05-09T20:22:57.216Z,14.43
2023-05-09T20:24:29.420Z,13.90
2023-05-09T20:26:01.905Z,14.73
2023-05-09T20:27:35.872Z,16.27
2023-05-09T20:29:08.146Z,13.32
2023-05-09T20:30:40.290Z,14.13
2023-05-09T20:32:12.478Z,16.20
2023-05-09T20:33:44.619Z,14.00
2023-05-09T20:35:16.756Z,15.05
2023-05-09T20:36:52.617Z,15.10
2023-05-09T20:38:24.851Z,12.48
2023-05-09T20:39:57.126Z,14.13
2023-05-09T20:41:29.334Z,16.02
2023-05-09T20:43:01.447Z,13.20
2023-05-09T20:44:34.515Z,15.55
2023-05-09T20:46:07.329Z,15.02
2023-05-09T20:47:40.326Z,13.95
2023-05-09T20:49:13.024Z,14.00
2023-05-09T20:50:45.098Z,14.80
2023-05-09T20:52:17.338Z,14.73
2023-05-09T20:53:49.592Z,14.43
2023-05-09T20:55:21.752Z,13.60
2023-05-09T20:56:54.099Z,14.00
2023-05-09T20:58:26.375Z,14.60
2023-05-09T20:59:58.490Z,12.88
2023-05-09T21:01:32.957Z,13.30
2023-05-09T21:03:05.290Z,15.40
2023-05-09T21:04:37.671Z,13.07
2023-05-09T21:06:09.844Z,14.55
2023-05-09T21:07:41.845Z,18.05
2023-05-09T21:09:14.124Z,17.40
2023-05-09T21:10:47.850Z,15.60
2023-05-09T21:12:20.242Z,15.70
2023-05-09T21:13:52.378Z,14.13
2023-05-09T21:15:24.526Z,15.55
2023-05-09T21:16:58.543Z,15.98
2023-05-09T21:18:30.909Z,14.60
2023-05-09T21:20:03.035Z,17.73
2023-05-09T21:21:35.394Z,16.65
2023-05-09T21:23:07.511Z,13.93
2023-05-09T21:24:42.955Z,15.98
2023-05-09T21:26:15.534Z,12.93
2023-05-09T21:27:47.745Z,13.63
2023-05-09T21:29:19.931Z,13.88
2023-05-09T21:30:53.149Z,14.63
2023-05-09T21:32:25.441Z,14.20
2023-05-09T21:33:59.427Z,21.58
2023-05-09T21:35:31.615Z,14.25
2023-05-09T21:37:03.787Z,18.65
2023-05-09T21:38:35.945Z,15.23
2023-05-09T21:40:09.181Z,14.60
2023-05-09T21:41:43.166Z,13.75
2023-05-09T21:43:15.902Z,16.05
2023-05-09T21:44:48.074Z,15.88
2023-05-09T21:46:20.238Z,12.32
2023-05-09T21:47:52.470Z,14.13
2023-05-09T21:49:24.629Z,13.00
2023-05-09T21:50:56.967Z,13.18
2023-05-09T21:52:29.232Z,12.90
2023-05-09T21:54:01.741Z,14.00
2023-05-09T21:55:33.941Z,15.07
2023-05-09T21:57:06.050Z,16.80
2023-05-09T21:58:38.365Z,13.30
2023-05-09T22:00:14.677Z,15.10
2023-05-09T22:01:47.141Z,14.38
2023-05-09T22:03:19.292Z,14.80
2023-05-09T22:04:51.411Z,13.70